createdAt,value
2023-02-16T00:00:53.755Z,3.80
2023-02-16T00:03:24.107Z,3.70
2023-02-16T00:05:52.123Z,3.70
2023-02-16T00:08:20.055Z,3.80
2023-02-16T00:11:09.629Z,3.70
2023-02-16T00:13:49.400Z,3.70
2023-02-16T00:16:23.392Z,3.70
2023-02-16T00:18:52.833Z,3.70
2023-02-16T00:21:21.511Z,3.60
2023-02-16T00:23:49.199Z,3.50
2023-02-16T00:26:26.264Z,3.50
2023-02-16T00:29:00.831Z,3.50
2023-02-16T00:31:34.091Z,3.50
2023-02-16T00:34:35.794Z,3.50
2023-02-16T00:37:10.492Z,3.40
2023-02-16T00:39:41.308Z,3.30
2023-02-16T00:42:29.219Z,3.30
2023-02-16T00:44:59.786Z,3.30
2023-02-16T00:47:38.389Z,3.30
2023-02-16T00:50:24.344Z,3.20
2023-02-16T00:52:52.589Z,3.20
2023-02-16T00:55:26.879Z,3.30
2023-02-16T00:58:30.952Z,3.20
2023-02-16T01:01:16.564Z,3.30
2023-02-16T01:03:48.574Z,3.20
2023-02-16T01:06:34.893Z,3.20
2023-02-16T01:09:36.845Z,3.30
2023-02-16T01:12:20.912Z,3.20
2023-02-16T01:14:56.145Z,3.10
2023-02-16T01:17:25.434Z,3.00
2023-02-16T01:19:56.110Z,3.00
2023-02-16T01:22:23.701Z,3.10
2023-02-16T01:24:52.021Z,3.00
2023-02-16T01:27:20.213Z,2.90
2023-02-16T01:29:47.750Z,2.90
2023-02-16T01:32:16.811Z,3.00
2023-02-16T01:34:44.512Z,3.10
2023-02-16T01:37:16.958Z,3.10
2023-02-16T01:39:45.198Z,3.10
2023-02-16T01:42:53.343Z,3.20
2023-02-16T01:45:43.079Z,3.30
2023-02-16T01:48:31.424Z,3.30
2023-02-16T01:51:33.525Z,3.40
2023-02-16T01:54:27.858Z,3.50
2023-02-16T01:58:14.985Z,3.50
2023-02-16T02:00:57.337Z,3.20
2023-02-16T02:03:55.869Z,3.20
2023-02-16T02:06:35.658Z,3.10
2023-02-16T02:09:45.643Z,3.00
2023-02-16T02:12:48.406Z,3.00
2023-02-16T02:15:23.879Z,3.20
2023-02-16T02:17:53.412Z,3.50
2023-02-16T02:21:24.257Z,3.50
2023-02-16T02:24:57.068Z,3.50
2023-02-16T02:27:41.103Z,3.40
2023-02-16T02:31:03.845Z,3.40
2023-02-16T02:34:44.674Z,3.50
2023-02-16T02:37:40.912Z,3.50
2023-02-16T02:41:19.307Z,3.40
2023-02-16T02:44:06.613Z,3.30
2023-02-16T02:46:37.153Z,3.40
2023-02-16T02:49:05.200Z,3.30
2023-02-16T02:51:33.988Z,3.30
2023-02-16T02:54:47.707Z,3.40
2023-02-16T02:57:55.789Z,3.30
2023-02-16T03:00:44.799Z,3.40
2023-02-16T03:03:51.343Z,3.30
2023-02-16T03:06:35.117Z,3.40
2023-02-16T03:09:14.364Z,3.30
2023-02-16T03:12:03.855Z,3.30
2023-02-16T03:14:44.127Z,3.30
2023-02-16T03:17:41.467Z,3.30
2023-02-16T03:20:34.344Z,3.20
2023-02-16T03:23:24.588Z,3.20
2023-02-16T03:26:13.129Z,3.20
2023-02-16T03:29:05.682Z,3.20
2023-02-16T03:31:39.086Z,3.20
2023-02-16T03:34:08.401Z,3.20
2023-02-16T03:36:46.018Z,3.10
2023-02-16T03:39:14.069Z,3.00
2023-02-16T03:41:51.490Z,3.00
2023-02-16T03:44:20.332Z,3.00
2023-02-16T03:46:51.588Z,2.80
2023-02-16T03:49:20.717Z,2.80
2023-02-16T03:51:48.587Z,2.70
2023-02-16T03:54:16.141Z,2.60
2023-02-16T03:56:43.738Z,2.40
2023-02-16T03:59:11.341Z,2.40
2023-02-16T04:01:38.927Z,2.30
2023-02-16T04:04:06.583Z,2.30
2023-02-16T04:06:34.178Z,2.30
2023-02-16T04:09:02.040Z,2.30
2023-02-16T04:11:48.267Z,2.30
2023-02-16T04:14:16.460Z,2.40
2023-02-16T04:16:44.141Z,2.50
2023-02-16T04:19:11.931Z,2.50
2023-02-16T04:21:39.623Z,2.60
2023-02-16T04:24:08.396Z,2.60
2023-02-16T04:26:36.136Z,2.70
2023-02-16T04:29:03.776Z,2.60
2023-02-16T04:31:31.964Z,2.70
2023-02-16T04:33:59.705Z,2.80
2023-02-16T04:36:27.293Z,2.80
2023-02-16T04:38:54.864Z,2.80
2023-02-16T04:41:22.406Z,2.70
2023-02-16T04:43:49.948Z,2.70
2023-02-16T04:46:19.577Z,2.60
2023-02-16T04:48:47.358Z,2.60
2023-02-16T04:51:15.112Z,2.60
2023-02-16T04:53:42.745Z,2.40
2023-02-16T04:56:12.868Z,2.40
2023-02-16T04:58:41.501Z,2.40
2023-02-16T05:01:09.798Z,2.50
2023-02-16T05:03:37.398Z,2.50
2023-02-16T05:06:05.518Z,2.60
2023-02-16T05:08:33.099Z,2.70
2023-02-16T05:11:19.344Z,2.80
2023-02-16T05:14:05.666Z,2.80
2023-02-16T05:16:33.828Z,2.90
2023-02-16T05:19:01.878Z,2.90
2023-02-16T05:21:32.465Z,2.90
2023-02-16T05:24:10.829Z,2.90
2023-02-16T05:26:40.421Z,3.00
2023-02-16T05:29:08.359Z,2.90
2023-02-16T05:31:36.069Z,2.90
2023-02-16T05:34:03.690Z,2.80
2023-02-16T05:36:31.338Z,2.80
2023-02-16T05:38:59.439Z,2.80
2023-02-16T05:41:26.995Z,2.60
2023-02-16T05:44:04.319Z,2.60
2023-02-16T05:46:38.601Z,2.60
2023-02-16T05:49:09.322Z,2.60
2023-02-16T05:51:37.862Z,2.60
2023-02-16T05:54:06.313Z,2.50
2023-02-16T05:56:34.826Z,2.40
2023-02-16T05:59:02.431Z,2.50
2023-02-16T06:01:30.123Z,2.50
2023-02-16T06:03:57.887Z,2.50
2023-02-16T06:06:25.549Z,2.50
2023-02-16T06:08:56.809Z,2.60
2023-02-16T06:11:37.968Z,2.70
2023-02-16T06:14:18.590Z,2.70
2023-02-16T06:16:53.481Z,2.90
2023-02-16T06:19:21.561Z,3.00
2023-02-16T06:21:49.291Z,3.10
2023-02-16T06:24:17.036Z,3.10
2023-02-16T06:26:44.707Z,3.20
2023-02-16T06:29:12.255Z,3.20
2023-02-16T06:31:39.900Z,3.30
2023-02-16T06:34:08.137Z,3.40
2023-02-16T06:36:35.873Z,3.40
2023-02-16T06:39:04.443Z,3.60
2023-02-16T06:41:32.267Z,3.70
2023-02-16T06:44:16.650Z,3.90
2023-02-16T06:46:48.194Z,3.90
2023-02-16T06:49:21.657Z,4.10
2023-02-16T06:51:50.513Z,4.10
2023-02-16T06:54:19.447Z,4.20
2023-02-16T06:56:47.001Z,4.30
2023-02-16T06:59:14.705Z,4.30
2023-02-16T07:01:44.251Z,4.30
2023-02-16T07:04:13.152Z,4.30
2023-02-16T07:06:41.410Z,4.40
2023-02-16T07:09:13.118Z,4.40
2023-02-16T07:11:41.580Z,4.40
2023-02-16T07:14:09.719Z,4.50
2023-02-16T07:16:37.527Z,4.50
2023-02-16T07:19:05.781Z,4.60
2023-02-16T07:21:34.145Z,4.60
2023-02-16T07:24:01.785Z,4.70
2023-02-16T07:26:29.482Z,4.70
2023-02-16T07:28:57.056Z,4.80
2023-02-16T07:31:27.375Z,4.90
2023-02-16T07:33:55.078Z,5.00
2023-02-16T07:36:22.759Z,5.10
2023-02-16T07:38:50.405Z,5.20
2023-02-16T07:41:18.031Z,5.40
2023-02-16T07:43:45.634Z,5.60
2023-02-16T07:46:13.249Z,5.60
2023-02-16T07:48:41.357Z,5.80
2023-02-16T07:51:09.004Z,5.90
2023-02-16T07:53:36.638Z,6.00
2023-02-16T07:56:04.661Z,6.10
2023-02-16T07:58:32.260Z,6.10
2023-02-16T08:01:14.783Z,6.20
2023-02-16T08:03:43.904Z,6.30
2023-02-16T08:06:12.152Z,6.40
2023-02-16T08:08:40.494Z,6.50
2023-02-16T08:11:24.043Z,6.60
2023-02-16T08:13:53.071Z,6.80
2023-02-16T08:16:29.495Z,6.90
2023-02-16T08:19:01.044Z,7.00
2023-02-16T08:21:34.811Z,7.10
2023-02-16T08:24:08.886Z,7.40
2023-02-16T08:26:43.255Z,7.50
2023-02-16T08:29:13.331Z,7.60
2023-02-16T08:31:42.416Z,7.50
2023-02-16T08:34:11.178Z,7.50
2023-02-16T08:36:42.484Z,7.50
2023-02-16T08:39:19.110Z,7.50
2023-02-16T08:41:50.097Z,7.50
2023-02-16T08:44:23.828Z,7.40
2023-02-16T08:46:56.570Z,7.40
2023-02-16T08:49:26.179Z,7.50
2023-02-16T08:51:58.991Z,7.50
2023-02-16T08:54:33.495Z,7.90
2023-02-16T08:57:03.150Z,8.00
2023-02-16T08:59:32.843Z,8.00
2023-02-16T09:02:01.718Z,8.00
2023-02-16T09:04:30.252Z,8.00
2023-02-16T09:06:59.704Z,8.10
2023-02-16T09:09:28.805Z,8.20
2023-02-16T09:11:58.159Z,8.30
2023-02-16T09:14:26.608Z,8.70
2023-02-16T09:16:54.204Z,9.20
2023-02-16T09:19:22.948Z,9.50
2023-02-16T09:21:51.230Z,9.60
2023-02-16T09:24:19.506Z,9.60
2023-02-16T09:26:47.173Z,9.40
2023-02-16T09:29:14.975Z,9.40
2023-02-16T09:31:44.498Z,9.50
2023-02-16T09:34:22.693Z,9.60
2023-02-16T09:36:52.269Z,9.50
2023-02-16T09:39:19.934Z,9.70
2023-02-16T09:42:25.613Z,9.70
2023-02-16T09:45:14.079Z,9.80
2023-02-16T09:47:50.555Z,9.90
2023-02-16T09:50:53.471Z,9.80
2023-02-16T09:53:42.159Z,9.70
2023-02-16T09:56:49.038Z,9.50
2023-02-16T10:00:18.477Z,9.40
2023-02-16T10:03:21.307Z,9.30
2023-02-16T10:06:24.920Z,9.20
2023-02-16T10:09:19.337Z,9.10
2023-02-16T10:12:34.271Z,9.10
2023-02-16T10:15:23.745Z,9.10
2023-02-16T10:18:17.130Z,8.90
2023-02-16T10:20:55.514Z,9.00
2023-02-16T10:24:08.616Z,8.90
2023-02-16T10:27:15.024Z,8.90
2023-02-16T10:29:43.391Z,8.80
2023-02-16T10:32:30.681Z,8.70
2023-02-16T10:35:20.693Z,8.70
2023-02-16T10:38:12.939Z,8.90
2023-02-16T10:41:29.839Z,9.00
2023-02-16T10:44:59.796Z,9.10
2023-02-16T10:47:47.511Z,9.30
2023-02-16T10:51:09.611Z,9.30
2023-02-16T10:54:02.116Z,9.50
2023-02-16T10:57:11.384Z,9.60
2023-02-16T10:59:46.994Z,9.70
2023-02-16T11:02:51.541Z,9.70
2023-02-16T11:05:39.746Z,9.70
2023-02-16T11:08:14.256Z,9.80
2023-02-16T11:10:58.520Z,10.10
2023-02-16T11:13:38.123Z,10.10
2023-02-16T11:16:24.487Z,10.10
2023-02-16T11:19:28.006Z,10.20
2023-02-16T11:22:01.959Z,10.20
2023-02-16T11:24:38.151Z,10.40
2023-02-16T11:27:25.048Z,10.30
2023-02-16T11:30:30.584Z,10.50
2023-02-16T11:33:03.725Z,10.60
2023-02-16T11:35:45.412Z,10.60
2023-02-16T11:38:37.142Z,10.60
2023-02-16T11:41:08.868Z,10.50
2023-02-16T11:43:46.311Z,10.20
2023-02-16T11:46:25.984Z,10.20
2023-02-16T11:48:54.614Z,10.20
2023-02-16T11:51:36.490Z,10.20
2023-02-16T11:54:08.158Z,9.80
2023-02-16T11:56:37.276Z,9.70
2023-02-16T11:59:22.720Z,9.60
2023-02-16T12:02:28.484Z,9.40
2023-02-16T12:05:39.198Z,9.60
2023-02-16T12:08:53.255Z,9.50
2023-02-16T12:12:04.334Z,9.70
2023-02-16T12:15:15.252Z,9.90
2023-02-16T12:18:54.088Z,9.90
2023-02-16T12:21:50.929Z,9.80
2023-02-16T12:25:04.342Z,9.70
2023-02-16T12:28:30.638Z,9.80
2023-02-16T12:32:06.972Z,9.70
2023-02-16T12:35:09.584Z,9.80
2023-02-16T12:37:58.459Z,9.60
2023-02-16T12:41:08.221Z,9.70
2023-02-16T12:43:51.302Z,9.90
2023-02-16T12:46:47.970Z,10.00
2023-02-16T12:49:47.792Z,10.20
2023-02-16T12:52:46.576Z,10.30
2023-02-16T12:55:49.109Z,10.10
2023-02-16T12:58:22.884Z,10.20
2023-02-16T13:01:04.491Z,10.30
2023-02-16T13:03:54.402Z,10.30
2023-02-16T13:06:58.024Z,10.30
2023-02-16T13:09:58.808Z,10.30
2023-02-16T13:13:19.164Z,10.20
2023-02-16T13:16:03.808Z,10.10
2023-02-16T13:18:47.503Z,9.90
2023-02-16T13:21:54.675Z,9.80
2023-02-16T13:25:04.347Z,9.60
2023-02-16T13:27:41.865Z,9.70
2023-02-16T13:31:01.717Z,9.40
2023-02-16T13:34:26.940Z,9.30
2023-02-16T13:37:21.891Z,9.40
2023-02-16T13:40:35.552Z,9.40
2023-02-16T13:43:35.083Z,9.40
2023-02-16T13:46:32.221Z,9.50
2023-02-16T13:49:02.699Z,9.50
2023-02-16T13:51:46.319Z,9.50
2023-02-16T13:54:40.609Z,9.60
2023-02-16T13:58:01.785Z,9.50
2023-02-16T14:00:45.277Z,9.50
2023-02-16T14:03:21.452Z,9.50
2023-02-16T14:06:16.519Z,9.50
2023-02-16T14:09:13.342Z,9.40
2023-02-16T14:11:53.055Z,9.30
2023-02-16T14:15:00.240Z,9.30
2023-02-16T14:17:36.935Z,9.30
2023-02-16T14:20:13.390Z,9.20
2023-02-16T14:22:57.521Z,9.20
2023-02-16T14:25:27.305Z,9.30
2023-02-16T14:28:05.715Z,9.50
2023-02-16T14:31:00.900Z,9.90
2023-02-16T14:33:43.951Z,10.10
2023-02-16T14:36:26.372Z,10.10
2023-02-16T14:38:59.485Z,10.20
2023-02-16T14:41:40.287Z,10.20
2023-02-16T14:44:23.601Z,10.30
2023-02-16T14:48:10.719Z,10.10
2023-02-16T14:51:37.565Z,9.80
2023-02-16T14:55:13.401Z,9.60
2023-02-16T14:58:57.615Z,9.60
2023-02-16T15:01:26.542Z,9.60
2023-02-16T15:03:58.183Z,9.50
2023-02-16T15:06:41.055Z,9.50
2023-02-16T15:09:34.116Z,9.50
2023-02-16T15:12:21.888Z,9.50
2023-02-16T15:15:07.823Z,9.70
2023-02-16T15:17:51.493Z,9.70
2023-02-16T15:20:37.075Z,9.70
2023-02-16T15:23:25.647Z,9.70
2023-02-16T15:26:05.642Z,9.70
2023-02-16T15:28:42.361Z,9.90
2023-02-16T15:31:23.967Z,9.80
2023-02-16T15:34:26.504Z,9.90
2023-02-16T15:36:54.452Z,9.90
2023-02-16T15:39:45.501Z,9.90
2023-02-16T15:42:29.728Z,9.90
2023-02-16T15:44:57.507Z,10.00
2023-02-16T15:47:27.457Z,10.10
2023-02-16T15:49:55.695Z,10.10
2023-02-16T15:52:38.002Z,10.20
2023-02-16T15:55:10.453Z,10.20
2023-02-16T15:57:42.033Z,10.30
2023-02-16T16:00:19.625Z,10.20
2023-02-16T16:02:54.970Z,10.10
2023-02-16T16:05:33.133Z,10.00
2023-02-16T16:08:03.762Z,10.00
2023-02-16T16:10:43.142Z,9.90
2023-02-16T16:13:25.920Z,9.80
2023-02-16T16:16:02.296Z,9.80
2023-02-16T16:18:50.446Z,9.80
2023-02-16T16:21:36.010Z,9.80
2023-02-16T16:24:11.851Z,9.80
2023-02-16T16:26:58.546Z,9.80
2023-02-16T16:29:48.608Z,9.90
2023-02-16T16:32:29.057Z,9.90
2023-02-16T16:34:57.333Z,9.90
2023-02-16T16:37:36.478Z,9.90
2023-02-16T16:40:30.664Z,9.90
2023-02-16T16:43:04.919Z,9.90
2023-02-16T16:45:51.888Z,9.90
2023-02-16T16:48:36.494Z,10.00
2023-02-16T16:51:41.217Z,10.10
2023-02-16T16:54:39.705Z,10.00
2023-02-16T16:57:19.559Z,10.00
2023-02-16T16:59:47.599Z,10.10
2023-02-16T17:02:15.339Z,10.20
2023-02-16T17:04:44.544Z,10.20
2023-02-16T17:07:12.341Z,10.20
2023-02-16T17:09:40.279Z,10.30
2023-02-16T17:12:11.302Z,10.30
2023-02-16T17:14:39.885Z,10.20
2023-02-16T17:17:12.014Z,10.20
2023-02-16T17:19:42.132Z,10.20
2023-02-16T17:22:21.583Z,10.10
2023-02-16T17:24:49.796Z,10.20
2023-02-16T17:27:17.510Z,10.30
2023-02-16T17:29:46.734Z,10.30
2023-02-16T17:32:14.778Z,10.30
2023-02-16T17:34:42.664Z,10.40
2023-02-16T17:37:11.513Z,10.40
2023-02-16T17:39:39.306Z,10.50
2023-02-16T17:42:12.498Z,10.40
2023-02-16T17:44:40.228Z,10.50
2023-02-16T17:47:16.523Z,10.50
2023-02-16T17:49:44.539Z,10.60
2023-02-16T17:52:13.896Z,10.60
2023-02-16T17:54:41.732Z,10.60
2023-02-16T17:57:10.972Z,10.70
2023-02-16T17:59:41.291Z,10.60
2023-02-16T18:02:12.412Z,10.60
2023-02-16T18:04:43.022Z,10.60
2023-02-16T18:07:22.120Z,10.60
2023-02-16T18:09:50.653Z,10.60
2023-02-16T18:12:18.516Z,10.60
2023-02-16T18:14:46.200Z,10.60
2023-02-16T18:17:14.616Z,10.60
2023-02-16T18:19:42.446Z,10.60
2023-02-16T18:22:10.278Z,10.60
2023-02-16T18:24:38.027Z,10.70
2023-02-16T18:27:05.956Z,10.70
2023-02-16T18:29:33.864Z,10.80
2023-02-16T18:32:03.162Z,10.80
2023-02-16T18:34:32.638Z,10.90
2023-02-16T18:37:00.442Z,10.70
2023-02-16T18:39:28.471Z,10.60
2023-02-16T18:41:56.250Z,10.60
2023-02-16T18:44:24.032Z,10.60
2023-02-16T18:46:51.929Z,10.50
2023-02-16T18:49:19.574Z,10.40
2023-02-16T18:51:47.300Z,10.30
2023-02-16T18:54:15.391Z,10.40
2023-02-16T18:56:43.260Z,10.50
2023-02-16T18:59:11.881Z,10.60
2023-02-16T19:01:40.263Z,10.60
2023-02-16T19:04:08.254Z,10.60
2023-02-16T19:06:36.123Z,10.60
2023-02-16T19:09:04.376Z,10.60
2023-02-16T19:11:33.341Z,10.70
2023-02-16T19:14:02.243Z,10.70
2023-02-16T19:16:30.964Z,10.70
2023-02-16T19:18:58.816Z,10.60
2023-02-16T19:21:27.171Z,10.50
2023-02-16T19:23:55.077Z,10.50
2023-02-16T19:26:22.944Z,10.50
2023-02-16T19:28:52.357Z,10.50
2023-02-16T19:31:31.051Z,10.40
2023-02-16T19:34:00.780Z,10.20
2023-02-16T19:36:32.122Z,10.10
2023-02-16T19:39:03.657Z,10.00
2023-02-16T19:41:43.075Z,9.80
2023-02-16T19:44:14.608Z,9.70
2023-02-16T19:46:43.752Z,9.70
2023-02-16T19:49:15.945Z,9.70
2023-02-16T19:51:45.832Z,9.60
2023-02-16T19:54:15.256Z,9.60
2023-02-16T19:56:43.158Z,9.60
2023-02-16T19:59:11.103Z,9.70
2023-02-16T20:01:39.365Z,9.80
2023-02-16T20:04:07.206Z,9.80
2023-02-16T20:06:42.053Z,9.90
2023-02-16T20:09:12.584Z,9.90
2023-02-16T20:11:41.622Z,9.90
2023-02-16T20:14:11.314Z,9.90
2023-02-16T20:16:41.412Z,9.90
2023-02-16T20:19:09.437Z,10.00
2023-02-16T20:21:37.826Z,10.10
2023-02-16T20:24:07.290Z,10.20
2023-02-16T20:26:46.154Z,10.20
2023-02-16T20:29:16.784Z,10.10
2023-02-16T20:31:56.488Z,10.10
2023-02-16T20:34:27.729Z,10.10
2023-02-16T20:36:55.548Z,10.00
2023-02-16T20:39:24.283Z,10.00
2023-02-16T20:41:52.245Z,10.00
2023-02-16T20:44:20.313Z,10.00
2023-02-16T20:46:48.356Z,9.90
2023-02-16T20:49:16.512Z,9.90
2023-02-16T20:51:44.998Z,10.00
2023-02-16T20:54:13.408Z,9.90
2023-02-16T20:56:41.247Z,9.90
2023-02-16T20:59:10.531Z,10.00
2023-02-16T21:01:47.000Z,10.00
2023-02-16T21:04:19.054Z,10.00
2023-02-16T21:06:47.525Z,9.90
2023-02-16T21:09:17.277Z,9.80
2023-02-16T21:11:45.346Z,9.80
2023-02-16T21:14:13.944Z,9.70
2023-02-16T21:16:42.355Z,9.70
2023-02-16T21:19:22.136Z,9.60
2023-02-16T21:21:51.831Z,9.50
2023-02-16T21:24:19.819Z,9.40
2023-02-16T21:26:47.900Z,9.20
2023-02-16T21:29:15.655Z,9.20
2023-02-16T21:31:43.729Z,9.10
2023-02-16T21:34:11.698Z,9.10
2023-02-16T21:36:39.539Z,9.10
2023-02-16T21:39:07.576Z,9.10
2023-02-16T21:41:36.010Z,9.20
2023-02-16T21:44:15.729Z,9.20
2023-02-16T21:46:48.087Z,9.40
2023-02-16T21:49:20.812Z,9.50
2023-02-16T21:51:49.778Z,9.50
2023-02-16T21:54:42.711Z,9.40
2023-02-16T21:57:10.999Z,9.50
2023-02-16T21:59:38.940Z,9.40
2023-02-16T22:02:06.821Z,9.40
2023-02-16T22:04:34.514Z,9.30
2023-02-16T22:07:02.459Z,9.30
2023-02-16T22:09:30.379Z,9.40
2023-02-16T22:11:58.324Z,9.40
2023-02-16T22:14:26.658Z,9.50
2023-02-16T22:16:54.737Z,9.60
2023-02-16T22:19:23.188Z,9.60
2023-02-16T22:21:51.692Z,9.50
2023-02-16T22:24:20.667Z,9.60
2023-02-16T22:26:51.516Z,9.60
2023-02-16T22:29:19.868Z,9.60
2023-02-16T22:31:49.996Z,9.60
2023-02-16T22:34:22.421Z,9.60
2023-02-16T22:36:50.974Z,9.80
2023-02-16T22:39:20.393Z,9.70
2023-02-16T22:41:51.594Z,9.70
2023-02-16T22:44:19.553Z,9.70
2023-02-16T22:46:47.562Z,9.70
2023-02-16T22:49:15.656Z,9.80
2023-02-16T22:51:43.755Z,9.70
2023-02-16T22:54:14.500Z,9.80
2023-02-16T22:56:42.819Z,9.80
2023-02-16T22:59:13.216Z,9.90
2023-02-16T23:01:41.474Z,9.90
2023-02-16T23:04:16.450Z,9.80
2023-02-16T23:06:45.807Z,9.80
2023-02-16T23:09:24.150Z,9.80
2023-02-16T23:11:52.482Z,9.80
2023-02-16T23:14:21.221Z,9.80
2023-02-16T23:16:57.476Z,10.00
2023-02-16T23:19:27.514Z,10.00
2023-02-16T23:21:56.216Z,9.90
2023-02-16T23:24:26.512Z,9.90
2023-02-16T23:26:55.183Z,10.00
2023-02-16T23:29:23.800Z,10.10
2023-02-16T23:31:53.305Z,10.10
2023-02-16T23:34:21.893Z,10.00
2023-02-16T23:36:50.310Z,10.00
2023-02-16T23:39:19.720Z,10.00
2023-02-16T23:41:47.793Z,9.90
2023-02-16T23:44:16.247Z,9.90
2023-02-16T23:46:43.990Z,9.90
2023-02-16T23:49:11.703Z,9.90
2023-02-16T23:51:39.661Z,9.90
2023-02-16T23:54:09.571Z,9.90
2023-02-16T23:56:37.405Z,9.80
2023-02-16T23:59:05.199Z,9.80
